sensor_id;sensor_type;location;lat;lon;timestamp;P1;durP1;ratioP1;P2;durP2;ratioP2
55670;SDS011;41551;47.500;8.408;2022-08-21T00:01:28;2.40;;;1.75;;
55670;SDS011;41551;47.500;8.408;2022-08-21T00:03:56;3.22;;;1.95;;
55670;SDS011;41551;47.500;8.408;2022-08-21T00:06:23;3.35;;;2.45;;
55670;SDS011;41551;47.500;8.408;2022-08-21T00:08:50;4.95;;;2.65;;
55670;SDS011;41551;47.500;8.408;2022-08-21T00:11:17;4.32;;;2.90;;
55670;SDS011;41551;47.500;8.408;2022-08-21T00:13:46;3.97;;;3.00;;
55670;SDS011;41551;47.500;8.408;2022-08-21T00:16:13;3.17;;;2.88;;
55670;SDS011;41551;47.500;8.408;2022-08-21T00:18:40;2.88;;;2.67;;
55670;SDS011;41551;47.500;8.408;2022-08-21T00:21:07;3.33;;;2.85;;
55670;SDS011;41551;47.500;8.408;2022-08-21T00:23:34;2.80;;;2.47;;
55670;SDS011;41551;47.500;8.408;2022-08-21T00:26:01;4.43;;;2.88;;
55670;SDS011;41551;47.500;8.408;2022-08-21T00:28:28;2.83;;;2.30;;
55670;SDS011;41551;47.500;8.408;2022-08-21T00:30:56;3.63;;;2.17;;
55670;SDS011;41551;47.500;8.408;2022-08-21T00:33:24;3.05;;;2.00;;
55670;SDS011;41551;47.500;8.408;2022-08-21T00:35:52;2.80;;;1.80;;
55670;SDS011;41551;47.500;8.408;2022-08-21T00:38:19;11.40;;;2.40;;
55670;SDS011;41551;47.500;8.408;2022-08-21T00:40:47;2.10;;;1.90;;
55670;SDS011;41551;47.500;8.408;2022-08-21T00:43:17;6.63;;;2.10;;
55670;SDS011;41551;47.500;8.408;2022-08-21T00:45:45;2.88;;;1.90;;
55670;SDS011;41551;47.500;8.408;2022-08-21T00:48:14;3.05;;;2.05;;
55670;SDS011;41551;47.500;8.408;2022-08-21T00:50:43;6.07;;;2.45;;
55670;SDS011;41551;47.500;8.408;2022-08-21T00:53:14;5.50;;;3.15;;
55670;SDS011;41551;47.500;8.408;2022-08-21T00:55:42;7.22;;;3.00;;
55670;SDS011;41551;47.500;8.408;2022-08-21T00:58:10;6.60;;;2.92;;
55670;SDS011;41551;47.500;8.408;2022-08-21T01:00:39;5.72;;;3.17;;
55670;SDS011;41551;47.500;8.408;2022-08-21T01:03:09;5.95;;;3.75;;
55670;SDS011;41551;47.500;8.408;2022-08-21T01:05:40;9.98;;;3.67;;
55670;SDS011;41551;47.500;8.408;2022-08-21T01:08:07;6.72;;;2.80;;
55670;SDS011;41551;47.500;8.408;2022-08-21T01:10:36;7.68;;;3.50;;
55670;SDS011;41551;47.500;8.408;2022-08-21T01:13:03;6.43;;;4.03;;
55670;SDS011;41551;47.500;8.408;2022-08-21T01:15:33;9.10;;;4.47;;
55670;SDS011;41551;47.500;8.408;2022-08-21T01:18:03;18.38;;;4.38;;
55670;SDS011;41551;47.500;8.408;2022-08-21T01:20:32;9.70;;;4.68;;
55670;SDS011;41551;47.500;8.408;2022-08-21T01:23:01;8.63;;;4.95;;
55670;SDS011;41551;47.500;8.408;2022-08-21T01:25:30;11.10;;;4.50;;
55670;SDS011;41551;47.500;8.408;2022-08-21T01:27:58;6.10;;;3.63;;
55670;SDS011;41551;47.500;8.408;2022-08-21T01:30:28;7.47;;;4.20;;
55670;SDS011;41551;47.500;8.408;2022-08-21T01:32:55;6.82;;;3.88;;
55670;SDS011;41551;47.500;8.408;2022-08-21T01:35:22;10.45;;;6.07;;
55670;SDS011;41551;47.500;8.408;2022-08-21T01:37:49;8.07;;;4.18;;
55670;SDS011;41551;47.500;8.408;2022-08-21T01:40:18;13.27;;;4.78;;
55670;SDS011;41551;47.500;8.408;2022-08-21T01:42:46;10.80;;;4.68;;
55670;SDS011;41551;47.500;8.408;2022-08-21T01:45:13;9.63;;;5.28;;
55670;SDS011;41551;47.500;8.408;2022-08-21T01:47:41;8.80;;;4.95;;
55670;SDS011;41551;47.500;8.408;2022-08-21T01:50:11;10.05;;;4.65;;
55670;SDS011;41551;47.500;8.408;2022-08-21T01:52:39;7.18;;;4.05;;
55670;SDS011;41551;47.500;8.408;2022-08-21T01:55:07;6.55;;;3.80;;
55670;SDS011;41551;47.500;8.408;2022-08-21T01:57:36;8.82;;;3.85;;
55670;SDS011;41551;47.500;8.408;2022-08-21T02:00:04;8.38;;;3.70;;
55670;SDS011;41551;47.500;8.408;2022-08-21T02:02:33;8.50;;;4.05;;
55670;SDS011;41551;47.500;8.408;2022-08-21T02:05:00;9.18;;;4.65;;
55670;SDS011;41551;47.500;8.408;2022-08-21T02:07:27;7.55;;;3.85;;
55670;SDS011;41551;47.500;8.408;2022-08-21T02:09:53;5.88;;;3.42;;
55670;SDS011;41551;47.500;8.408;2022-08-21T02:12:20;7.50;;;3.65;;
55670;SDS011;41551;47.500;8.408;2022-08-21T02:14:49;8.13;;;3.90;;
55670;SDS011;41551;47.500;8.408;2022-08-21T02:17:15;9.05;;;3.90;;
55670;SDS011;41551;47.500;8.408;2022-08-21T02:19:42;8.88;;;4.00;;
55670;SDS011;41551;47.500;8.408;2022-08-21T02:22:09;9.10;;;4.80;;
55670;SDS011;41551;47.500;8.408;2022-08-21T02:24:36;6.80;;;3.97;;
55670;SDS011;41551;47.500;8.408;2022-08-21T02:27:04;9.80;;;4.75;;
55670;SDS011;41551;47.500;8.408;2022-08-21T02:29:31;9.80;;;5.05;;
55670;SDS011;41551;47.500;8.408;2022-08-21T02:31:59;12.50;;;4.85;;
55670;SDS011;41551;47.500;8.408;2022-08-21T02:34:26;12.52;;;5.63;;
55670;SDS011;41551;47.500;8.408;2022-08-21T02:36:52;16.38;;;5.82;;
55670;SDS011;41551;47.500;8.408;2022-08-21T02:39:19;16.35;;;6.55;;
55670;SDS011;41551;47.500;8.408;2022-08-21T02:41:46;12.65;;;5.95;;
55670;SDS011;41551;47.500;8.408;2022-08-21T02:44:12;13.48;;;5.47;;
55670;SDS011;41551;47.500;8.408;2022-08-21T02:46:39;13.88;;;5.45;;
55670;SDS011;41551;47.500;8.408;2022-08-21T02:49:07;14.70;;;5.72;;
55670;SDS011;41551;47.500;8.408;2022-08-21T02:51:34;12.82;;;5.13;;
55670;SDS011;41551;47.500;8.408;2022-08-21T02:54:00;12.32;;;5.72;;
55670;SDS011;41551;47.500;8.408;2022-08-21T02:56:27;14.93;;;5.60;;
55670;SDS011;41551;47.500;8.408;2022-08-21T02:58:54;10.85;;;5.57;;
55670;SDS011;41551;47.500;8.408;2022-08-21T03:01:20;9.70;;;6.03;;
55670;SDS011;41551;47.500;8.408;2022-08-21T03:03:48;11.93;;;5.38;;
55670;SDS011;41551;47.500;8.408;2022-08-21T03:06:17;10.90;;;4.80;;
55670;SDS011;41551;47.500;8.408;2022-08-21T03:08:45;11.48;;;5.03;;
55670;SDS011;41551;47.500;8.408;2022-08-21T03:11:12;7.18;;;4.57;;
55670;SDS011;41551;47.500;8.408;2022-08-21T03:13:40;17.00;;;5.53;;
55670;SDS011;41551;47.500;8.408;2022-08-21T03:16:08;9.75;;;5.88;;
55670;SDS011;41551;47.500;8.408;2022-08-21T03:18:35;10.27;;;5.22;;
55670;SDS011;41551;47.500;8.408;2022-08-21T03:21:03;7.88;;;5.35;;
55670;SDS011;41551;47.500;8.408;2022-08-21T03:23:34;11.15;;;5.68;;
55670;SDS011;41551;47.500;8.408;2022-08-21T03:26:02;8.80;;;5.55;;
55670;SDS011;41551;47.500;8.408;2022-08-21T03:28:29;8.13;;;5.20;;
55670;SDS011;41551;47.500;8.408;2022-08-21T03:30:57;10.00;;;5.85;;
55670;SDS011;41551;47.500;8.408;2022-08-21T03:33:24;8.68;;;5.90;;
55670;SDS011;41551;47.500;8.408;2022-08-21T03:35:56;9.88;;;5.90;;
55670;SDS011;41551;47.500;8.408;2022-08-21T03:38:25;10.38;;;5.82;;
55670;SDS011;41551;47.500;8.408;2022-08-21T03:40:55;9.93;;;5.40;;
55670;SDS011;41551;47.500;8.408;2022-08-21T03:43:21;9.10;;;5.75;;
55670;SDS011;41551;47.500;8.408;2022-08-21T03:45:48;8.35;;;5.40;;
55670;SDS011;41551;47.500;8.408;2022-08-21T03:48:15;10.65;;;5.55;;
55670;SDS011;41551;47.500;8.408;2022-08-21T03:50:42;8.30;;;5.78;;
55670;SDS011;41551;47.500;8.408;2022-08-21T03:53:12;8.88;;;5.40;;
55670;SDS011;41551;47.500;8.408;2022-08-21T03:55:39;9.27;;;5.55;;
55670;SDS011;41551;47.500;8.408;2022-08-21T03:58:08;9.65;;;5.70;;
55670;SDS011;41551;47.500;8.408;2022-08-21T04:00:34;7.32;;;5.10;;
55670;SDS011;41551;47.500;8.408;2022-08-21T04:03:02;10.00;;;5.78;;
55670;SDS011;41551;47.500;8.408;2022-08-21T04:05:29;8.65;;;5.38;;
55670;SDS011;41551;47.500;8.408;2022-08-21T04:07:56;8.20;;;5.65;;
55670;SDS011;41551;47.500;8.408;2022-08-21T04:10:24;8.38;;;5.70;;
55670;SDS011;41551;47.500;8.408;2022-08-21T04:12:53;9.70;;;5.90;;
55670;SDS011;41551;47.500;8.408;2022-08-21T04:15:22;9.43;;;6.05;;
55670;SDS011;41551;47.500;8.408;2022-08-21T04:17:51;7.43;;;5.15;;
55670;SDS011;41551;47.500;8.408;2022-08-21T04:20:19;9.48;;;5.50;;
55670;SDS011;41551;47.500;8.408;2022-08-21T04:22:47;8.25;;;5.25;;
55670;SDS011;41551;47.500;8.408;2022-08-21T04:25:16;9.40;;;5.88;;
55670;SDS011;41551;47.500;8.408;2022-08-21T04:27:43;9.20;;;5.60;;
55670;SDS011;41551;47.500;8.408;2022-08-21T04:30:11;8.00;;;5.10;;
55670;SDS011;41551;47.500;8.408;2022-08-21T04:32:41;8.27;;;4.95;;
55670;SDS011;41551;47.500;8.408;2022-08-21T04:35:09;8.75;;;5.25;;
55670;SDS011;41551;47.500;8.408;2022-08-21T04:37:37;7.57;;;5.38;;
55670;SDS011;41551;47.500;8.408;2022-08-21T04:40:05;9.50;;;5.57;;
55670;SDS011;41551;47.500;8.408;2022-08-21T04:42:40;8.60;;;5.70;;
55670;SDS011;41551;47.500;8.408;2022-08-21T04:45:09;12.00;;;6.22;;
55670;SDS011;41551;47.500;8.408;2022-08-21T04:47:41;8.30;;;5.35;;
55670;SDS011;41551;47.500;8.408;2022-08-21T04:50:08;8.20;;;5.50;;
55670;SDS011;41551;47.500;8.408;2022-08-21T04:52:35;10.35;;;5.82;;
55670;SDS011;41551;47.500;8.408;2022-08-21T04:55:02;8.93;;;5.18;;
55670;SDS011;41551;47.500;8.408;2022-08-21T04:57:30;7.35;;;4.93;;
55670;SDS011;41551;47.500;8.408;2022-08-21T04:59:57;9.30;;;5.72;;
55670;SDS011;41551;47.500;8.408;2022-08-21T05:02:24;8.63;;;5.68;;
55670;SDS011;41551;47.500;8.408;2022-08-21T05:04:53;7.95;;;4.90;;
55670;SDS011;41551;47.500;8.408;2022-08-21T05:07:22;6.80;;;4.85;;
55670;SDS011;41551;47.500;8.408;2022-08-21T05:09:52;6.32;;;4.28;;
55670;SDS011;41551;47.500;8.408;2022-08-21T05:12:20;5.85;;;4.07;;
55670;SDS011;41551;47.500;8.408;2022-08-21T05:14:47;6.82;;;4.18;;
55670;SDS011;41551;47.500;8.408;2022-08-21T05:17:14;4.70;;;3.60;;
55670;SDS011;41551;47.500;8.408;2022-08-21T05:19:41;5.82;;;3.83;;
55670;SDS011;41551;47.500;8.408;2022-08-21T05:22:09;5.40;;;3.92;;
55670;SDS011;41551;47.500;8.408;2022-08-21T05:24:36;4.95;;;3.85;;
55670;SDS011;41551;47.500;8.408;2022-08-21T05:27:03;5.28;;;3.42;;
55670;SDS011;41551;47.500;8.408;2022-08-21T05:29:30;5.03;;;3.95;;
55670;SDS011;41551;47.500;8.408;2022-08-21T05:31:56;4.38;;;3.30;;
55670;SDS011;41551;47.500;8.408;2022-08-21T05:34:23;5.03;;;3.28;;
55670;SDS011;41551;47.500;8.408;2022-08-21T05:36:50;5.10;;;3.80;;
55670;SDS011;41551;47.500;8.408;2022-08-21T05:39:18;3.88;;;3.00;;
55670;SDS011;41551;47.500;8.408;2022-08-21T05:41:45;4.28;;;3.33;;
55670;SDS011;41551;47.500;8.408;2022-08-21T05:44:12;4.30;;;3.28;;
55670;SDS011;41551;47.500;8.408;2022-08-21T05:46:39;3.88;;;3.10;;
55670;SDS011;41551;47.500;8.408;2022-08-21T05:49:06;4.88;;;3.30;;
55670;SDS011;41551;47.500;8.408;2022-08-21T05:51:33;6.30;;;3.50;;
55670;SDS011;41551;47.500;8.408;2022-08-21T05:54:00;5.13;;;3.50;;
55670;SDS011;41551;47.500;8.408;2022-08-21T05:56:28;4.05;;;2.92;;
55670;SDS011;41551;47.500;8.408;2022-08-21T05:58:55;3.17;;;2.47;;
55670;SDS011;41551;47.500;8.408;2022-08-21T06:01:21;3.42;;;2.78;;
55670;SDS011;41551;47.500;8.408;2022-08-21T06:03:48;3.97;;;2.95;;
55670;SDS011;41551;47.500;8.408;2022-08-21T06:06:15;3.55;;;2.80;;
55670;SDS011;41551;47.500;8.408;2022-08-21T06:08:42;3.20;;;2.90;;
55670;SDS011;41551;47.500;8.408;2022-08-21T06:11:09;4.07;;;3.17;;
55670;SDS011;41551;47.500;8.408;2022-08-21T06:13:37;4.30;;;3.05;;
55670;SDS011;41551;47.500;8.408;2022-08-21T06:16:04;5.05;;;3.63;;
55670;SDS011;41551;47.500;8.408;2022-08-21T06:18:33;4.82;;;3.45;;
55670;SDS011;41551;47.500;8.408;2022-08-21T06:21:00;5.13;;;3.65;;
55670;SDS011;41551;47.500;8.408;2022-08-21T06:23:27;4.68;;;3.67;;
55670;SDS011;41551;47.500;8.408;2022-08-21T06:25:54;6.43;;;4.47;;
55670;SDS011;41551;47.500;8.408;2022-08-21T06:28:21;7.72;;;4.00;;
55670;SDS011;41551;47.500;8.408;2022-08-21T06:30:49;6.43;;;4.35;;
55670;SDS011;41551;47.500;8.408;2022-08-21T06:33:16;5.22;;;4.07;;
55670;SDS011;41551;47.500;8.408;2022-08-21T06:35:42;5.32;;;4.32;;
55670;SDS011;41551;47.500;8.408;2022-08-21T06:38:09;6.03;;;4.00;;
55670;SDS011;41551;47.500;8.408;2022-08-21T06:40:36;5.28;;;4.30;;
55670;SDS011;41551;47.500;8.408;2022-08-21T06:43:05;5.80;;;4.30;;
55670;SDS011;41551;47.500;8.408;2022-08-21T06:45:33;5.45;;;4.13;;
55670;SDS011;41551;47.500;8.408;2022-08-21T06:48:01;5.57;;;4.35;;
55670;SDS011;41551;47.500;8.408;2022-08-21T06:50:29;5.68;;;4.80;;
55670;SDS011;41551;47.500;8.408;2022-08-21T06:53:00;5.88;;;4.70;;
55670;SDS011;41551;47.500;8.408;2022-08-21T06:55:28;7.35;;;4.65;;
55670;SDS011;41551;47.500;8.408;2022-08-21T06:57:55;5.85;;;4.75;;
55670;SDS011;41551;47.500;8.408;2022-08-21T07:00:22;6.82;;;4.63;;
55670;SDS011;41551;47.500;8.408;2022-08-21T07:02:49;6.90;;;4.43;;
55670;SDS011;41551;47.500;8.408;2022-08-21T07:05:17;5.88;;;4.97;;
55670;SDS011;41551;47.500;8.408;2022-08-21T07:07:44;6.95;;;5.32;;
55670;SDS011;41551;47.500;8.408;2022-08-21T07:10:10;7.50;;;4.90;;
55670;SDS011;41551;47.500;8.408;2022-08-21T07:12:37;5.43;;;4.60;;
55670;SDS011;41551;47.500;8.408;2022-08-21T07:15:04;5.50;;;4.72;;
55670;SDS011;41551;47.500;8.408;2022-08-21T07:17:32;4.93;;;4.43;;
55670;SDS011;41551;47.500;8.408;2022-08-21T07:19:58;5.38;;;4.57;;
55670;SDS011;41551;47.500;8.408;2022-08-21T07:22:27;5.43;;;4.43;;
55670;SDS011;41551;47.500;8.408;2022-08-21T07:24:53;5.07;;;4.57;;
55670;SDS011;41551;47.500;8.408;2022-08-21T07:27:20;5.88;;;4.03;;
55670;SDS011;41551;47.500;8.408;2022-08-21T07:29:47;5.90;;;4.78;;
55670;SDS011;41551;47.500;8.408;2022-08-21T07:32:13;5.38;;;4.65;;
55670;SDS011;41551;47.500;8.408;2022-08-21T07:34:41;6.82;;;4.40;;
55670;SDS011;41551;47.500;8.408;2022-08-21T07:37:07;4.53;;;3.92;;
55670;SDS011;41551;47.500;8.408;2022-08-21T07:39:35;5.68;;;4.65;;
55670;SDS011;41551;47.500;8.408;2022-08-21T07:42:02;6.47;;;4.88;;
55670;SDS011;41551;47.500;8.408;2022-08-21T07:44:29;5.53;;;4.60;;
55670;SDS011;41551;47.500;8.408;2022-08-21T07:46:56;5.38;;;4.40;;
55670;SDS011;41551;47.500;8.408;2022-08-21T07:49:23;5.88;;;4.80;;
55670;SDS011;41551;47.500;8.408;2022-08-21T07:51:49;5.07;;;4.43;;
55670;SDS011;41551;47.500;8.408;2022-08-21T07:54:16;5.65;;;4.35;;
55670;SDS011;41551;47.500;8.408;2022-08-21T07:56:44;4.80;;;4.30;;
55670;SDS011;41551;47.500;8.408;2022-08-21T07:59:11;5.05;;;4.00;;
55670;SDS011;41551;47.500;8.408;2022-08-21T08:01:38;4.93;;;4.18;;
55670;SDS011;41551;47.500;8.408;2022-08-21T08:04:05;4.75;;;4.30;;
55670;SDS011;41551;47.500;8.408;2022-08-21T08:06:31;5.60;;;4.50;;
55670;SDS011;41551;47.500;8.408;2022-08-21T08:08:58;5.68;;;5.05;;
55670;SDS011;41551;47.500;8.408;2022-08-21T08:11:27;5.28;;;4.78;;
55670;SDS011;41551;47.500;8.408;2022-08-21T08:13:55;5.50;;;4.78;;
55670;SDS011;41551;47.500;8.408;2022-08-21T08:16:24;4.95;;;4.25;;
55670;SDS011;41551;47.500;8.408;2022-08-21T08:18:51;5.53;;;4.60;;
55670;SDS011;41551;47.500;8.408;2022-08-21T08:21:19;5.97;;;4.68;;
55670;SDS011;41551;47.500;8.408;2022-08-21T08:23:46;6.07;;;4.70;;
55670;SDS011;41551;47.500;8.408;2022-08-21T08:26:13;5.60;;;4.80;;
55670;SDS011;41551;47.500;8.408;2022-08-21T08:28:40;5.78;;;5.10;;
55670;SDS011;41551;47.500;8.408;2022-08-21T08:31:09;6.03;;;5.20;;
55670;SDS011;41551;47.500;8.408;2022-08-21T08:33:36;5.50;;;4.32;;
55670;SDS011;41551;47.500;8.408;2022-08-21T08:36:03;4.30;;;3.90;;
55670;SDS011;41551;47.500;8.408;2022-08-21T08:38:30;4.97;;;3.25;;
55670;SDS011;41551;47.500;8.408;2022-08-21T08:40:58;5.75;;;3.42;;
55670;SDS011;41551;47.500;8.408;2022-08-21T08:43:35;3.60;;;3.25;;
55670;SDS011;41551;47.500;8.408;2022-08-21T08:46:03;4.82;;;3.42;;
55670;SDS011;41551;47.500;8.408;2022-08-21T08:48:41;3.42;;;3.13;;
55670;SDS011;41551;47.500;8.408;2022-08-21T08:51:14;3.47;;;3.13;;
55670;SDS011;41551;47.500;8.408;2022-08-21T08:53:48;4.05;;;3.25;;
55670;SDS011;41551;47.500;8.408;2022-08-21T08:56:20;3.75;;;3.35;;
55670;SDS011;41551;47.500;8.408;2022-08-21T08:58:53;4.43;;;3.97;;
55670;SDS011;41551;47.500;8.408;2022-08-21T09:01:23;5.90;;;3.90;;
55670;SDS011;41551;47.500;8.408;2022-08-21T09:03:51;5.57;;;4.07;;
55670;SDS011;41551;47.500;8.408;2022-08-21T09:06:21;4.75;;;3.58;;
55670;SDS011;41551;47.500;8.408;2022-08-21T09:09:02;4.15;;;3.55;;
55670;SDS011;41551;47.500;8.408;2022-08-21T09:11:41;3.53;;;3.22;;
55670;SDS011;41551;47.500;8.408;2022-08-21T09:14:14;3.78;;;3.15;;
55670;SDS011;41551;47.500;8.408;2022-08-21T09:16:51;3.33;;;3.03;;
55670;SDS011;41551;47.500;8.408;2022-08-21T09:19:35;3.45;;;3.15;;
55670;SDS011;41551;47.500;8.408;2022-08-21T09:22:14;4.55;;;3.20;;
55670;SDS011;41551;47.500;8.408;2022-08-21T09:24:47;4.25;;;3.47;;
55670;SDS011;41551;47.500;8.408;2022-08-21T09:27:22;3.85;;;3.00;;
55670;SDS011;41551;47.500;8.408;2022-08-21T09:29:50;3.83;;;3.28;;
55670;SDS011;41551;47.500;8.408;2022-08-21T09:32:23;4.38;;;2.83;;
55670;SDS011;41551;47.500;8.408;2022-08-21T09:34:56;2.50;;;2.30;;
55670;SDS011;41551;47.500;8.408;2022-08-21T09:37:25;2.95;;;2.75;;
55670;SDS011;41551;47.500;8.408;2022-08-21T09:39:53;4.50;;;2.80;;
55670;SDS011;41551;47.500;8.408;2022-08-21T09:42:24;3.10;;;2.75;;
55670;SDS011;41551;47.500;8.408;2022-08-21T09:45:05;2.60;;;2.40;;
55670;SDS011;41551;47.500;8.408;2022-08-21T09:47:38;2.88;;;2.58;;
55670;SDS011;41551;47.500;8.408;2022-08-21T09:50:14;4.97;;;2.70;;
55670;SDS011;41551;47.500;8.408;2022-08-21T09:52:45;3.03;;;2.50;;
55670;SDS011;41551;47.500;8.408;2022-08-21T09:55:15;2.58;;;2.22;;
55670;SDS011;41551;47.500;8.408;2022-08-21T09:57:59;4.68;;;2.05;;
55670;SDS011;41551;47.500;8.408;2022-08-21T10:00:28;3.28;;;2.30;;
55670;SDS011;41551;47.500;8.408;2022-08-21T10:03:07;5.05;;;2.33;;
55670;SDS011;41551;47.500;8.408;2022-08-21T10:05:37;3.10;;;1.88;;
55670;SDS011;41551;47.500;8.408;2022-08-21T10:08:05;2.55;;;2.00;;
55670;SDS011;41551;47.500;8.408;2022-08-21T10:10:43;2.58;;;1.88;;
55670;SDS011;41551;47.500;8.408;2022-08-21T10:13:11;3.83;;;2.15;;
55670;SDS011;41551;47.500;8.408;2022-08-21T10:15:47;3.65;;;2.58;;
55670;SDS011;41551;47.500;8.408;2022-08-21T10:18:19;3.00;;;2.10;;
55670;SDS011;41551;47.500;8.408;2022-08-21T10:20:52;2.50;;;1.80;;
55670;SDS011;41551;47.500;8.408;2022-08-21T10:23:29;5.57;;;1.90;;
55670;SDS011;41551;47.500;8.408;2022-08-21T10:26:06;2.35;;;2.00;;
55670;SDS011;41551;47.500;8.408;2022-08-21T10:28:54;3.22;;;1.98;;
55670;SDS011;41551;47.500;8.408;2022-08-21T10:31:31;2.00;;;1.73;;
55670;SDS011;41551;47.500;8.408;2022-08-21T10:34:08;2.00;;;1.73;;
55670;SDS011;41551;47.500;8.408;2022-08-21T10:36:49;2.25;;;1.42;;
55670;SDS011;41551;47.500;8.408;2022-08-21T10:39:27;3.92;;;1.60;;
55670;SDS011;41551;47.500;8.408;2022-08-21T10:42:08;4.40;;;1.63;;
55670;SDS011;41551;47.500;8.408;2022-08-21T10:44:49;3.83;;;1.42;;
55670;SDS011;41551;47.500;8.408;2022-08-21T10:47:23;3.17;;;1.25;;
55670;SDS011;41551;47.500;8.408;2022-08-21T10:49:58;2.88;;;1.40;;
55670;SDS011;41551;47.500;8.408;2022-08-21T10:52:39;5.45;;;2.10;;
55670;SDS011;41551;47.500;8.408;2022-08-21T10:55:16;5.78;;;2.20;;
55670;SDS011;41551;47.500;8.408;2022-08-21T10:57:46;5.45;;;1.75;;
55670;SDS011;41551;47.500;8.408;2022-08-21T11:00:17;5.43;;;2.00;;
55670;SDS011;41551;47.500;8.408;2022-08-21T11:02:49;3.70;;;1.85;;
55670;SDS011;41551;47.500;8.408;2022-08-21T11:05:20;2.65;;;1.20;;
55670;SDS011;41551;47.500;8.408;2022-08-21T11:07:56;2.85;;;1.45;;
55670;SDS011;41551;47.500;8.408;2022-08-21T11:10:29;2.05;;;1.13;;
55670;SDS011;41551;47.500;8.408;2022-08-21T11:13:00;1.88;;;1.35;;
55670;SDS011;41551;47.500;8.408;2022-08-21T11:15:33;3.05;;;1.13;;
55670;SDS011;41551;47.500;8.408;2022-08-21T11:18:10;4.65;;;1.23;;
55670;SDS011;41551;47.500;8.408;2022-08-21T11:20:46;3.92;;;1.38;;
55670;SDS011;41551;47.500;8.408;2022-08-21T11:23:21;2.22;;;1.10;;
55670;SDS011;41551;47.500;8.408;2022-08-21T11:25:53;2.20;;;1.10;;
55670;SDS011;41551;47.500;8.408;2022-08-21T11:28:28;2.00;;;0.90;;
55670;SDS011;41551;47.500;8.408;2022-08-21T11:31:01;1.98;;;0.95;;
55670;SDS011;41551;47.500;8.408;2022-08-21T11:33:49;3.80;;;1.02;;
55670;SDS011;41551;47.500;8.408;2022-08-21T11:36:29;3.25;;;1.30;;
55670;SDS011;41551;47.500;8.408;2022-08-21T11:39:06;2.35;;;1.73;;
55670;SDS011;41551;47.500;8.408;2022-08-21T11:41:43;1.30;;;1.20;;
55670;SDS011;41551;47.500;8.408;2022-08-21T11:44:19;2.30;;;0.98;;
55670;SDS011;41551;47.500;8.408;2022-08-21T11:46:57;4.15;;;1.35;;
55670;SDS011;41551;47.500;8.408;2022-08-21T11:49:33;1.60;;;1.20;;
55670;SDS011;41551;47.500;8.408;2022-08-21T11:52:12;1.00;;;1.00;;
55670;SDS011;41551;47.500;8.408;2022-08-21T11:54:48;1.38;;;1.00;;
55670;SDS011;41551;47.500;8.408;2022-08-21T11:57:20;1.45;;;0.73;;
55670;SDS011;41551;47.500;8.408;2022-08-21T11:59:51;2.00;;;0.90;;
55670;SDS011;41551;47.500;8.408;2022-08-21T12:02:22;1.65;;;0.90;;
55670;SDS011;41551;47.500;8.408;2022-08-21T12:04:55;2.15;;;0.80;;
55670;SDS011;41551;47.500;8.408;2022-08-21T12:07:30;1.48;;;0.60;;
55670;SDS011;41551;47.500;8.408;2022-08-21T12:10:03;1.27;;;0.77;;
55670;SDS011;41551;47.500;8.408;2022-08-21T12:12:34;2.78;;;0.98;;
55670;SDS011;41551;47.500;8.408;2022-08-21T12:15:16;2.10;;;0.90;;
55670;SDS011;41551;47.500;8.408;2022-08-21T12:17:51;2.22;;;0.90;;
55670;SDS011;41551;47.500;8.408;2022-08-21T12:20:26;2.63;;;0.85;;
55670;SDS011;41551;47.500;8.408;2022-08-21T12:23:17;1.60;;;0.85;;
55670;SDS011;41551;47.500;8.408;2022-08-21T12:26:01;1.60;;;0.93;;
55670;SDS011;41551;47.500;8.408;2022-08-21T12:28:43;2.00;;;0.90;;
55670;SDS011;41551;47.500;8.408;2022-08-21T12:31:20;1.05;;;0.80;;
55670;SDS011;41551;47.500;8.408;2022-08-21T12:33:56;2.40;;;0.90;;
55670;SDS011;41551;47.500;8.408;2022-08-21T12:36:28;1.33;;;0.98;;
55670;SDS011;41551;47.500;8.408;2022-08-21T12:39:10;1.35;;;0.82;;
55670;SDS011;41551;47.500;8.408;2022-08-21T12:41:43;2.45;;;0.82;;
55670;SDS011;41551;47.500;8.408;2022-08-21T12:44:14;1.42;;;0.70;;
55670;SDS011;41551;47.500;8.408;2022-08-21T12:46:44;0.90;;;0.70;;
55670;SDS011;41551;47.500;8.408;2022-08-21T12:49:14;1.33;;;0.68;;
55670;SDS011;41551;47.500;8.408;2022-08-21T12:51:50;1.83;;;0.82;;
55670;SDS011;41551;47.500;8.408;2022-08-21T12:54:22;1.35;;;0.80;;
55670;SDS011;41551;47.500;8.408;2022-08-21T12:57:00;1.73;;;1.00;;
55670;SDS011;41551;47.500;8.408;2022-08-21T12:59:28;1.10;;;0.63;;
55670;SDS011;41551;47.500;8.408;2022-08-21T13:01:56;2.25;;;0.73;;
55670;SDS011;41551;47.500;8.408;2022-08-21T13:04:27;0.80;;;0.70;;
55670;SDS011;41551;47.500;8.408;2022-08-21T13:07:00;1.02;;;0.75;;
55670;SDS011;41551;47.500;8.408;2022-08-21T13:09:27;1.40;;;0.70;;
55670;SDS011;41551;47.500;8.408;2022-08-21T13:11:55;0.90;;;0.70;;
55670;SDS011;41551;47.500;8.408;2022-08-21T13:14:28;0.80;;;0.80;;
55670;SDS011;41551;47.500;8.408;2022-08-21T13:16:58;2.25;;;0.88;;
55670;SDS011;41551;47.500;8.408;2022-08-21T13:19:26;1.75;;;0.73;;
55670;SDS011;41551;47.500;8.408;2022-08-21T13:21:54;1.25;;;0.80;;
55670;SDS011;41551;47.500;8.408;2022-08-21T13:24:22;0.70;;;0.70;;
55670;SDS011;41551;47.500;8.408;2022-08-21T13:26:51;1.15;;;0.70;;
55670;SDS011;41551;47.500;8.408;2022-08-21T13:29:19;2.15;;;0.63;;
55670;SDS011;41551;47.500;8.408;2022-08-21T13:31:49;1.23;;;0.70;;
55670;SDS011;41551;47.500;8.408;2022-08-21T13:34:18;1.08;;;0.68;;
55670;SDS011;41551;47.500;8.408;2022-08-21T13:36:46;1.83;;;0.80;;
55670;SDS011;41551;47.500;8.408;2022-08-21T13:39:14;0.75;;;0.70;;
55670;SDS011;41551;47.500;8.408;2022-08-21T13:41:45;0.65;;;0.60;;
55670;SDS011;41551;47.500;8.408;2022-08-21T13:44:17;1.42;;;0.70;;
55670;SDS011;41551;47.500;8.408;2022-08-21T13:46:46;0.68;;;0.60;;
55670;SDS011;41551;47.500;8.408;2022-08-21T13:49:17;1.80;;;0.73;;
55670;SDS011;41551;47.500;8.408;2022-08-21T13:51:45;0.60;;;0.60;;
55670;SDS011;41551;47.500;8.408;2022-08-21T13:54:14;0.60;;;0.60;;
55670;SDS011;41551;47.500;8.408;2022-08-21T13:56:42;0.88;;;0.70;;
55670;SDS011;41551;47.500;8.408;2022-08-21T13:59:11;2.08;;;0.70;;
55670;SDS011;41551;47.500;8.408;2022-08-21T14:01:51;0.65;;;0.50;;
55670;SDS011;41551;47.500;8.408;2022-08-21T14:04:24;1.35;;;0.52;;
55670;SDS011;41551;47.500;8.408;2022-08-21T14:06:57;0.73;;;0.60;;
55670;SDS011;41551;47.500;8.408;2022-08-21T14:09:26;0.73;;;0.50;;
55670;SDS011;41551;47.500;8.408;2022-08-21T14:11:56;1.45;;;0.55;;
55670;SDS011;41551;47.500;8.408;2022-08-21T14:14:25;0.70;;;0.50;;
55670;SDS011;41551;47.500;8.408;2022-08-21T14:16:56;1.52;;;0.70;;
55670;SDS011;41551;47.500;8.408;2022-08-21T14:19:24;1.17;;;0.60;;
55670;SDS011;41551;47.500;8.408;2022-08-21T14:21:53;0.60;;;0.60;;
55670;SDS011;41551;47.500;8.408;2022-08-21T14:24:27;0.60;;;0.60;;
55670;SDS011;41551;47.500;8.408;2022-08-21T14:26:57;0.60;;;0.60;;
55670;SDS011;41551;47.500;8.408;2022-08-21T14:29:33;1.45;;;0.68;;
55670;SDS011;41551;47.500;8.408;2022-08-21T14:32:08;0.50;;;0.50;;
55670;SDS011;41551;47.500;8.408;2022-08-21T14:34:39;1.38;;;0.68;;
55670;SDS011;41551;47.500;8.408;2022-08-21T14:37:06;0.88;;;0.60;;
55670;SDS011;41551;47.500;8.408;2022-08-21T14:39:32;1.52;;;0.60;;
55670;SDS011;41551;47.500;8.408;2022-08-21T14:41:59;3.67;;;0.70;;
55670;SDS011;41551;47.500;8.408;2022-08-21T14:44:27;2.10;;;0.73;;
55670;SDS011;41551;47.500;8.408;2022-08-21T14:46:54;1.13;;;0.80;;
55670;SDS011;41551;47.500;8.408;2022-08-21T14:49:23;0.80;;;0.75;;
55670;SDS011;41551;47.500;8.408;2022-08-21T14:51:52;0.80;;;0.80;;
55670;SDS011;41551;47.500;8.408;2022-08-21T14:54:22;1.50;;;0.85;;
55670;SDS011;41551;47.500;8.408;2022-08-21T14:56:48;0.98;;;0.70;;
55670;SDS011;41551;47.500;8.408;2022-08-21T14:59:15;1.08;;;0.80;;
55670;SDS011;41551;47.500;8.408;2022-08-21T15:01:42;1.60;;;0.90;;